Time;durP1;ratioP1;P1;durP2;ratioP2;P2;SDS_P1;SDS_P2;PMS_P1;PMS_P2;Temp;Humidity;BMP_temperature;BMP_pressure;BME280_temperature;BME280_humidity;BME280_pressure;Samples;Min_cycle;Max_cycle;Signal;HPM_P1;HPM_P2
2021/06/09 00:01:40;;;;;;;4.53;2.33;;;;;;;12.66;74.58;93398.56;5055665;28;20027;-48
2021/06/09 00:04:06;;;;;;;2.83;1.70;;;;;;;12.64;74.62;93392.84;5072630;28;20036;-52
2021/06/09 00:06:31;;;;;;;2.47;1.67;;;;;;;12.56;74.66;93389.38;5072930;28;20119;-52
2021/06/09 00:08:57;;;;;;;7.78;2.53;;;;;;;12.60;74.80;93393.25;5072771;28;20117;-52
2021/06/09 00:11:23;;;;;;;1.42;1.33;;;;;;;12.41;74.59;93370.09;5072506;28;20150;-49
2021/06/09 00:13:48;;;;;;;1.65;1.55;;;;;;;12.55;74.32;93394.19;5072833;28;20108;-52
2021/06/09 00:16:17;;;;;;;2.78;1.95;;;;;;;12.45;74.45;93392.59;5072459;28;20094;-50
2021/06/09 00:18:42;;;;;;;2.72;2.10;;;;;;;12.47;74.42;93398.31;5071143;28;20113;-52
2021/06/09 00:21:09;;;;;;;4.18;2.50;;;;;;;12.58;74.64;93395.09;5072195;28;20471;-53
2021/06/09 00:23:34;;;;;;;5.40;2.63;;;;;;;12.65;75.41;93394.28;5072536;28;20082;-52
2021/06/09 00:26:02;;;;;;;5.78;3.28;;;;;;;12.59;75.65;93391.75;5072243;28;20021;-52
2021/06/09 00:28:29;;;;;;;7.20;4.55;;;;;;;12.53;77.08;93404.34;5072217;28;20028;-49
2021/06/09 00:30:55;;;;;;;5.35;3.13;;;;;;;12.59;76.86;93399.31;5071185;28;20055;-45
2021/06/09 00:33:21;;;;;;;5.35;3.42;;;;;;;12.62;76.77;93406.53;5072344;28;20020;-45
2021/06/09 00:35:47;;;;;;;15.02;3.40;;;;;;;12.48;75.71;93408.06;5065529;28;20023;-43
2021/06/09 00:38:13;;;;;;;2.95;2.05;;;;;;;12.45;74.33;93409.22;5052086;28;20028;-45
2021/06/09 00:40:38;;;;;;;11.98;2.28;;;;;;;12.36;75.00;93407.03;5051770;28;20060;-46
2021/06/09 00:43:16;;;;;;;3.42;2.78;;;;;;;12.34;75.60;93413.13;5050516;28;20067;-46
2021/06/09 00:45:48;;;;;;;5.53;2.72;;;;;;;12.48;76.08;93406.03;5051117;28;20127;-46
2021/06/09 00:48:14;;;;;;;4.05;2.92;;;;;;;12.58;75.46;93412.44;5049913;28;20126;-44
2021/06/09 00:50:40;;;;;;;2.30;1.95;;;;;;;12.37;75.83;93405.72;5050089;28;20017;-44
2021/06/09 00:55:50;;;;;;;6.88;2.83;;;;;;;12.22;76.12;93400.25;5050433;28;20577;-45
2021/06/09 00:58:16;;;;;;;5.50;2.80;;;;;;;12.10;76.61;93403.47;5055432;28;20116;-47
2021/06/09 01:00:42;;;;;;;2.85;2.15;;;;;;;12.03;75.77;93384.84;5068660;28;20509;-43
2021/06/09 01:03:08;;;;;;;2.55;2.15;;;;;;;12.05;76.63;93398.88;5071826;28;20056;-45
2021/06/09 01:05:34;;;;;;;1.95;1.70;;;;;;;11.96;77.66;93393.16;5071718;28;20028;-44
2021/06/09 01:08:03;;;;;;;3.80;2.38;;;;;;;12.11;77.10;93396.63;5070656;28;20108;-46
2021/06/09 01:10:29;;;;;;;2.40;2.05;;;;;;;12.12;76.85;93400.13;5071230;28;20025;-44
2021/06/09 01:12:56;;;;;;;2.95;1.85;;;;;;;12.15;76.10;93396.22;5071523;28;20089;-46
2021/06/09 01:15:22;;;;;;;3.17;1.73;;;;;;;12.14;76.50;93405.84;5071244;28;20607;-47
2021/06/09 01:17:47;;;;;;;3.42;2.42;;;;;;;12.08;77.22;93403.25;5071512;28;20107;-46
2021/06/09 01:20:13;;;;;;;7.95;3.45;;;;;;;12.07;78.45;93409.38;5071088;28;20020;-45
2021/06/09 01:22:38;;;;;;;5.30;3.05;;;;;;;12.13;79.16;93409.88;5071357;28;20020;-44
2021/06/09 01:25:08;;;;;;;6.63;3.75;;;;;;;12.17;79.27;93405.44;5071363;28;20542;-45
2021/06/09 01:27:34;;;;;;;6.70;4.13;;;;;;;12.26;78.78;93406.88;5071241;28;20030;-43
2021/06/09 01:29:59;;;;;;;11.43;3.30;;;;;;;12.28;78.41;93414.66;5070852;28;20120;-43
2021/06/09 01:32:25;;;;;;;3.45;2.53;;;;;;;12.30;78.17;93412.06;5071228;28;20032;-43
2021/06/09 01:34:51;;;;;;;3.92;2.60;;;;;;;12.35;77.77;93406.28;5069661;28;20577;-43
2021/06/09 01:37:18;;;;;;;4.32;3.08;;;;;;;12.38;77.31;93409.97;5069615;28;20025;-46
2021/06/09 01:39:43;;;;;;;3.50;2.50;;;;;;;12.29;77.59;93422.38;5050526;28;20045;-40
2021/06/09 01:42:09;;;;;;;3.58;2.78;;;;;;;12.37;77.27;93414.78;5066269;28;20025;-43
2021/06/09 01:44:41;;;;;;;4.70;2.95;;;;;;;12.26;77.28;93408.94;5051032;28;20025;-43
2021/06/09 01:47:07;;;;;;;4.45;2.88;;;;;;;12.23;76.83;93410.78;5050662;28;20079;-44
2021/06/09 01:49:32;;;;;;;2.80;2.28;;;;;;;12.17;77.21;93408.22;5050836;28;20049;-44
2021/06/09 01:51:58;;;;;;;4.45;2.33;;;;;;;12.19;77.50;93404.91;5050558;28;20543;-43
2021/06/09 01:54:24;;;;;;;5.97;3.42;;;;;;;12.31;76.85;93392.09;5055259;28;20077;-43
2021/06/09 01:56:51;;;;;;;2.47;2.15;;;;;;;12.40;77.18;93399.06;5069669;28;20048;-46
2021/06/09 01:59:19;;;;;;;3.65;2.30;;;;;;;12.41;77.66;93400.56;5070470;28;20481;-47
2021/06/09 02:01:46;;;;;;;4.45;2.47;;;;;;;12.42;78.12;93399.25;5070743;28;20036;-47
2021/06/09 02:04:12;;;;;;;5.20;2.63;;;;;;;12.36;77.96;93395.97;5070421;28;20028;-46
2021/06/09 02:06:41;;;;;;;8.15;2.83;;;;;;;12.31;77.64;93394.88;5070807;28;20020;-46
2021/06/09 02:09:07;;;;;;;2.50;2.10;;;;;;;12.42;76.83;93385.41;5070251;28;20085;-45
2021/06/09 02:11:33;;;;;;;3.53;2.60;;;;;;;12.59;76.40;93399.31;5070595;28;20048;-46
2021/06/09 02:13:59;;;;;;;4.10;2.60;;;;;;;12.55;76.22;93385.88;5070337;28;20145;-46
2021/06/09 02:16:25;;;;;;;3.95;2.25;;;;;;;12.65;76.42;93394.28;5069370;28;20098;-47
2021/06/09 02:18:50;;;;;;;2.40;2.00;;;;;;;12.49;76.02;93401.97;5068957;28;20028;-47
2021/06/09 02:21:16;;;;;;;4.05;2.47;;;;;;;12.39;75.79;93403.88;5069434;28;20481;-44
2021/06/09 02:23:46;;;;;;;10.02;2.78;;;;;;;12.42;75.31;93405.53;5069096;28;20469;-45
2021/06/09 02:26:11;;;;;;;2.78;1.70;;;;;;;12.41;75.55;93397.78;5069075;28;20516;-44
2021/06/09 02:28:38;;;;;;;3.53;2.35;;;;;;;12.23;75.79;93404.50;5069251;28;20027;-44
2021/06/09 02:31:03;;;;;;;2.83;2.17;;;;;;;12.19;75.77;93405.63;5070334;28;20520;-48
2021/06/09 02:33:28;;;;;;;2.72;2.10;;;;;;;12.15;76.73;93416.34;5070510;28;20111;-44
2021/06/09 02:35:55;;;;;;;6.47;3.28;;;;;;;12.21;76.70;93409.88;5062444;28;20098;-46
2021/06/09 02:38:21;;;;;;;4.80;3.60;;;;;;;12.08;77.30;93417.09;5059114;28;20024;-44
2021/06/09 02:40:51;;;;;;;2.88;2.38;;;;;;;12.09;77.26;93417.84;5069841;28;20093;-44
2021/06/09 02:43:17;;;;;;;3.45;2.20;;;;;;;12.02;77.32;93424.88;5070354;28;20020;-44
2021/06/09 02:45:47;;;;;;;4.55;2.50;;;;;;;11.87;78.56;93419.41;5070336;28;20028;-46
2021/06/09 02:48:14;;;;;;;3.08;2.08;;;;;;;12.08;77.96;93417.09;5052135;28;20383;-44
2021/06/09 02:50:40;;;;;;;2.28;1.73;;;;;;;12.00;78.59;93421.19;5053493;28;20036;-45
2021/06/09 02:53:34;;;;;;;2.65;2.17;;;;;;;11.96;78.57;93416.06;5070179;28;20025;-44
2021/06/09 02:56:17;;;;;;;12.70;2.45;;;;;;;11.93;79.59;93419.22;5069912;28;20032;-45
2021/06/09 02:58:48;;;;;;;3.28;1.88;;;;;;;12.01;79.48;93417.88;5052087;28;20020;-44
2021/06/09 03:01:31;;;;;;;3.35;2.13;;;;;;;12.11;79.86;93426.31;5069826;28;20527;-45
2021/06/09 03:04:21;;;;;;;3.78;2.63;;;;;;;12.17;79.25;93421.34;5069016;28;20032;-44
2021/06/09 03:06:55;;;;;;;4.75;2.60;;;;;;;12.31;79.26;93430.84;5068641;28;20081;-46
2021/06/09 03:09:34;;;;;;;4.38;2.85;;;;;;;12.16;78.86;93394.94;5068915;28;20062;-47
2021/06/09 03:12:22;;;;;;;3.40;2.63;;;;;;;12.38;78.82;93415.50;5068467;28;20032;-47
2021/06/09 03:15:12;;;;;;;2.83;2.13;;;;;;;12.39;78.99;93428.06;5068733;28;20024;-46
2021/06/09 03:17:49;;;;;;;2.10;1.70;;;;;;;12.42;79.13;93421.41;5072076;28;20059;-45
2021/06/09 03:20:51;;;;;;;2.60;2.03;;;;;;;12.43;79.50;93420.09;5072212;28;20575;-43
2021/06/09 03:23:42;;;;;;;2.53;2.10;;;;;;;12.43;79.17;93422.88;5073734;28;20416;-46
2021/06/09 03:26:26;;;;;;;4.50;2.78;;;;;;;12.27;80.05;93418.69;5073354;28;20032;-43
2021/06/09 03:29:10;;;;;;;1.77;1.48;;;;;;;12.34;79.92;93409.63;5072080;28;20518;-46
2021/06/09 03:31:41;;;;;;;2.22;2.03;;;;;;;12.43;79.52;93420.09;5073554;28;20412;-45
2021/06/09 03:34:12;;;;;;;3.90;2.67;;;;;;;12.54;79.56;93412.09;5073181;28;20571;-43
2021/06/09 03:36:39;;;;;;;2.65;1.75;;;;;;;12.56;79.30;93408.78;5062424;28;20020;-43
2021/06/09 03:39:07;;;;;;;4.35;2.15;;;;;;;12.48;78.87;93410.84;5081028;28;20054;-47
2021/06/09 03:41:42;;;;;;;2.13;1.77;;;;;;;12.58;78.77;93412.44;5087061;28;20044;-44
2021/06/09 03:44:09;;;;;;;2.08;1.88;;;;;;;12.59;77.82;93413.91;5089849;28;20099;-44
2021/06/09 03:46:37;;;;;;;2.00;1.70;;;;;;;12.67;77.90;93413.84;5069078;28;20112;-43
2021/06/09 03:49:08;;;;;;;2.88;1.75;;;;;;;12.54;78.27;93406.56;5049974;28;20072;-43
2021/06/09 03:51:37;;;;;;;1.63;1.35;;;;;;;12.60;78.64;93406.34;5051283;28;20111;-44
2021/06/09 03:54:02;;;;;;;2.30;1.48;;;;;;;12.66;77.80;93413.16;5050010;28;20512;-45
2021/06/09 03:56:30;;;;;;;1.50;1.20;;;;;;;12.53;79.11;93405.09;5050186;28;20049;-45
2021/06/09 03:58:57;;;;;;;3.45;1.90;;;;;;;12.69;78.84;93416.81;5051051;28;20033;-44
2021/06/09 04:01:23;;;;;;;2.25;1.92;;;;;;;12.69;78.28;93416.81;5050417;28;20025;-45
2021/06/09 04:03:49;;;;;;;2.28;2.05;;;;;;;12.71;78.24;93408.69;5034255;28;20028;-43
2021/06/09 04:06:17;;;;;;;2.45;2.00;;;;;;;12.74;77.90;93410.31;5051416;28;20029;-43
2021/06/09 04:08:43;;;;;;;1.77;1.50;;;;;;;12.76;78.00;93410.47;5052677;28;20028;-46
2021/06/09 04:11:11;;;;;;;2.97;1.52;;;;;;;12.71;77.71;93412.16;5052527;28;20021;-43
2021/06/09 04:13:39;;;;;;;1.90;1.52;;;;;;;12.83;77.83;93415.25;5051504;28;20017;-43
2021/06/09 04:16:06;;;;;;;2.53;1.73;;;;;;;13.00;77.80;93417.34;5051083;28;20028;-43
2021/06/09 04:18:32;;;;;;;1.67;1.35;;;;;;;12.94;77.17;93404.47;5052674;28;20616;-43
2021/06/09 04:20:59;;;;;;;1.85;1.63;;;;;;;13.05;76.61;93408.09;5051332;28;20025;-43
2021/06/09 04:23:25;;;;;;;2.17;1.73;;;;;;;13.15;76.89;93406.16;5051370;28;20107;-43
2021/06/09 04:25:50;;;;;;;1.35;1.25;;;;;;;13.18;76.53;93408.56;5052464;28;20443;-44
2021/06/09 04:28:18;;;;;;;2.38;1.85;;;;;;;13.25;76.45;93412.56;5068037;28;20121;-44
2021/06/09 04:30:44;;;;;;;3.43;2.20;;;;;;;13.29;76.43;93413.63;5071677;28;20108;-43
2021/06/09 04:33:11;;;;;;;3.00;1.92;;;;;;;13.31;76.40;93405.50;5071294;28;20024;-46
2021/06/09 04:35:42;;;;;;;3.10;2.33;;;;;;;13.25;76.83;93407.03;5071536;28;20020;-44
2021/06/09 04:38:16;;;;;;;3.65;2.47;;;;;;;13.22;77.83;93416.47;5065358;28;20025;-43
2021/06/09 04:40:42;;;;;;;2.63;2.42;;;;;;;13.44;77.02;93413.50;5051795;28;20506;-43
2021/06/09 04:43:09;;;;;;;2.75;1.67;;;;;;;13.59;76.91;93407.06;5056352;28;20523;-44
2021/06/09 04:45:34;;;;;;;4.10;2.33;;;;;;;13.67;76.39;93411.25;5071919;28;20028;-44
2021/06/09 04:48:00;;;;;;;3.75;2.10;;;;;;;13.80;75.73;93420.53;5072025;28;20616;-45
2021/06/09 04:50:26;;;;;;;3.92;1.90;;;;;;;13.86;75.76;93407.91;5071959;28;20025;-44
2021/06/09 04:52:52;;;;;;;3.88;2.50;;;;;;;13.98;75.59;93413.72;5071776;28;20020;-43
2021/06/09 04:55:19;;;;;;;3.40;3.08;;;;;;;14.03;74.54;93410.69;5071692;28;20029;-43
2021/06/09 04:57:45;;;;;;;3.83;2.50;;;;;;;14.03;75.74;93409.97;5070663;28;20117;-44
2021/06/09 05:00:12;;;;;;;5.70;3.70;;;;;;;14.23;75.79;93422.66;5070379;28;20013;-43
2021/06/09 05:02:38;;;;;;;2.97;2.65;;;;;;;14.27;76.00;93411.91;5071733;28;20052;-44
2021/06/09 05:05:04;;;;;;;2.30;1.98;;;;;;;14.40;75.27;93423.41;5071798;28;20021;-43
2021/06/09 05:07:29;;;;;;;4.55;2.10;;;;;;;14.59;75.00;93425.59;5071296;28;20036;-44
2021/06/09 05:09:55;;;;;;;9.27;3.90;;;;;;;14.61;74.94;93430.56;5071407;28;20097;-46
2021/06/09 05:12:25;;;;;;;6.03;3.40;;;;;;;14.73;75.06;93432.25;5071682;28;20039;-44
2021/06/09 05:15:07;;;;;;;4.28;2.90;;;;;;;14.75;75.41;93426.13;5071360;28;20043;-46
2021/06/09 05:17:42;;;;;;;7.80;3.72;;;;;;;14.83;75.06;93435.09;5069805;28;20113;-44
2021/06/09 05:20:09;;;;;;;5.47;3.35;;;;;;;14.66;75.43;93426.81;5069972;28;20032;-44
2021/06/09 05:22:37;;;;;;;5.18;3.15;;;;;;;14.43;75.97;93411.16;5070031;28;20111;-44
2021/06/09 05:25:04;;;;;;;3.08;2.67;;;;;;;14.66;76.56;93435.84;5070172;28;20025;-44
2021/06/09 05:27:30;;;;;;;4.80;2.90;;;;;;;14.80;76.39;93431.41;5071291;28;20425;-45
2021/06/09 05:29:56;;;;;;;2.63;1.83;;;;;;;15.00;76.32;93432.97;5071010;28;20032;-44
2021/06/09 05:32:22;;;;;;;3.55;2.35;;;;;;;15.01;76.89;93414.97;5069970;28;20097;-43
2021/06/09 05:34:47;;;;;;;3.83;2.40;;;;;;;15.12;76.21;93420.00;5070690;28;20542;-44
2021/06/09 05:37:14;;;;;;;3.28;2.60;;;;;;;15.18;77.59;93430.88;5070652;28;20036;-45
2021/06/09 05:39:40;;;;;;;2.58;2.08;;;;;;;15.10;77.33;93421.88;5057118;28;20432;-48
2021/06/09 05:42:15;;;;;;;3.30;2.28;;;;;;;15.02;77.73;93416.47;5069697;28;20028;-45
2021/06/09 05:44:48;;;;;;;3.78;2.42;;;;;;;15.10;77.60;93422.63;5070613;28;20020;-46
2021/06/09 05:47:14;;;;;;;4.88;3.00;;;;;;;15.04;78.51;93413.84;5070408;28;20504;-45
2021/06/09 05:49:40;;;;;;;4.47;2.75;;;;;;;14.92;79.24;93404.53;5070490;28;20049;-45
2021/06/09 05:52:06;;;;;;;3.60;2.58;;;;;;;14.82;80.35;93412.09;5069226;28;20024;-46
2021/06/09 05:54:37;;;;;;;3.20;2.13;;;;;;;14.86;80.37;93417.25;5070709;28;20052;-44
2021/06/09 05:57:07;;;;;;;4.22;2.85;;;;;;;14.90;79.93;93412.72;5060888;28;20523;-46
2021/06/09 05:59:34;;;;;;;4.93;2.67;;;;;;;14.88;80.62;93414.63;5068687;28;20504;-44
2021/06/09 06:01:59;;;;;;;3.53;2.97;;;;;;;14.80;81.80;93411.97;5057809;28;20059;-44
2021/06/09 06:04:25;;;;;;;2.97;2.42;;;;;;;14.83;82.10;93410.06;5059305;28;20563;-45
2021/06/09 06:06:51;;;;;;;4.18;2.80;;;;;;;14.85;82.78;93408.19;5053218;28;20021;-45
2021/06/09 06:09:17;;;;;;;5.03;2.17;;;;;;;15.00;83.04;93412.78;5047574;28;20405;-44
2021/06/09 06:11:43;;;;;;;3.08;2.25;;;;;;;15.05;82.29;93417.34;5053480;28;20028;-45
2021/06/09 06:14:11;;;;;;;2.17;1.95;;;;;;;15.16;81.95;93414.75;5069239;28;20158;-43
2021/06/09 06:16:38;;;;;;;3.05;2.00;;;;;;;15.19;82.61;93419.16;5069378;28;20524;-44
2021/06/09 06:19:04;;;;;;;5.88;2.03;;;;;;;15.43;81.06;93420.28;5069639;28;20027;-45
2021/06/09 06:21:30;;;;;;;3.42;2.00;;;;;;;15.56;80.75;93405.22;5069331;28;20506;-43
2021/06/09 06:23:56;;;;;;;4.47;2.88;;;;;;;15.79;79.50;93413.91;5069202;28;20028;-45
2021/06/09 06:26:22;;;;;;;5.20;2.63;;;;;;;15.97;79.38;93409.69;5069372;28;20024;-43
2021/06/09 06:28:49;;;;;;;4.05;2.08;;;;;;;16.18;78.40;93409.84;5050838;28;20040;-44
2021/06/09 06:31:18;;;;;;;5.45;2.67;;;;;;;16.33;76.41;93415.13;5049290;28;20033;-44
2021/06/09 06:33:45;;;;;;;3.65;2.90;;;;;;;16.52;75.86;93403.97;5047911;28;20037;-44
2021/06/09 06:36:11;;;;;;;3.85;2.97;;;;;;;16.70;75.32;93415.69;5058264;28;20067;-45
2021/06/09 06:38:37;;;;;;;2.63;2.38;;;;;;;16.71;75.32;93389.28;5056678;28;20033;-44
2021/06/09 06:41:04;;;;;;;2.35;2.00;;;;;;;16.92;74.67;93406.09;5049015;28;20048;-44
2021/06/09 06:43:30;;;;;;;2.95;2.47;;;;;;;17.00;74.80;93398.28;5049123;28;20490;-44
2021/06/09 06:45:55;;;;;;;3.47;2.15;;;;;;;17.12;74.63;93403.97;5048745;28;20036;-45
2021/06/09 06:48:22;;;;;;;2.97;2.45;;;;;;;17.16;73.13;93396.63;5031409;28;20029;-44
2021/06/09 06:50:48;;;;;;;3.13;2.53;;;;;;;17.25;73.69;93392.34;5049086;28;20025;-44
2021/06/09 06:53:14;;;;;;;4.03;2.47;;;;;;;17.21;73.49;93394.84;5052054;28;20055;-44
2021/06/09 06:55:39;;;;;;;3.70;2.28;;;;;;;17.24;73.07;93393.66;5052095;28;20021;-42
2021/06/09 06:58:05;;;;;;;2.55;2.05;;;;;;;17.25;72.99;93381.91;5069697;28;20042;-44
2021/06/09 07:00:31;;;;;;;3.40;2.63;;;;;;;17.52;72.25;93394.88;5071928;28;20500;-45
2021/06/09 07:02:57;;;;;;;3.42;1.70;;;;;;;17.61;72.46;93380.13;5073070;28;20036;-46
2021/06/09 07:05:27;;;;;;;3.55;2.22;;;;;;;17.65;72.40;93381.13;5057698;28;20033;-47
2021/06/09 07:07:57;;;;;;;2.50;1.95;;;;;;;17.79;72.25;93382.06;5072202;28;20081;-45
2021/06/09 07:10:23;;;;;;;2.13;1.67;;;;;;;17.94;71.93;93375.34;5070993;28;20033;-44
2021/06/09 07:12:49;;;;;;;2.05;1.85;;;;;;;18.09;71.68;93384.06;5072652;28;20024;-43
2021/06/09 07:15:17;;;;;;;1.80;1.52;;;;;;;18.39;69.89;93381.75;5072757;28;20041;-43
2021/06/09 07:17:51;;;;;;;2.17;1.90;;;;;;;19.08;67.54;93378.44;5072921;28;20035;-47
2021/06/09 07:20:22;;;;;;;1.90;1.58;;;;;;;19.87;65.26;93381.84;5072531;28;20028;-48
2021/06/09 07:22:50;;;;;;;2.47;1.35;;;;;;;20.33;63.22;93383.84;5072614;28;20028;-43
2021/06/09 07:25:16;;;;;;;2.33;1.77;;;;;;;20.46;62.70;93388.06;5072209;28;20032;-44
2021/06/09 07:27:43;;;;;;;2.63;2.05;;;;;;;20.90;60.74;93382.09;5072275;28;20028;-44
2021/06/09 07:30:11;;;;;;;1.92;1.58;;;;;;;21.16;59.90;93389.16;5066210;28;20107;-44
2021/06/09 07:32:44;;;;;;;13.60;2.30;;;;;;;21.40;57.57;93381.31;5065533;28;20024;-45
2021/06/09 07:35:10;;;;;;;2.50;1.63;;;;;;;21.98;57.16;93387.22;5057367;28;20517;-47
2021/06/09 07:37:45;;;;;;;1.80;1.45;;;;;;;23.15;54.27;93385.19;5061780;28;20028;-46
2021/06/09 07:40:17;;;;;;;1.30;1.20;;;;;;;24.51;49.45;93384.22;5052857;28;20540;-45
2021/06/09 07:42:49;;;;;;;1.27;1.17;;;;;;;25.70;46.42;93388.19;5053687;28;20029;-45
2021/06/09 07:45:14;;;;;;;1.10;0.98;;;;;;;26.45;43.94;93385.94;5065527;28;20054;-43
2021/06/09 07:47:41;;;;;;;1.98;1.67;;;;;;;26.86;41.85;93391.59;5069892;28;20174;-44
2021/06/09 07:50:08;;;;;;;1.52;1.27;;;;;;;27.21;40.55;93396.25;5070072;28;20021;-46
2021/06/09 07:52:36;;;;;;;1.55;1.23;;;;;;;27.25;42.19;93382.22;5070946;28;20047;-44
2021/06/09 07:55:03;;;;;;;1.30;1.20;;;;;;;27.70;40.92;93399.22;5062067;28;20119;-45
2021/06/09 07:57:32;;;;;;;3.15;1.80;;;;;;;27.67;40.09;93401.28;5050849;28;20029;-46
2021/06/09 07:59:58;;;;;;;1.60;1.45;;;;;;;26.47;43.03;93403.72;5052038;28;20118;-43
2021/06/09 08:02:24;;;;;;;3.42;1.50;;;;;;;25.45;45.54;93401.44;5068862;28;20035;-48
2021/06/09 08:04:50;;;;;;;2.60;1.45;;;;;;;25.75;45.96;93393.34;5070542;28;20028;-43
2021/06/09 08:07:16;;;;;;;1.10;1.05;;;;;;;27.04;43.57;93392.19;5070536;28;20031;-46
2021/06/09 08:09:42;;;;;;;2.85;1.63;;;;;;;27.99;40.38;93384.50;5071765;28;20033;-43
2021/06/09 08:12:08;;;;;;;1.40;1.27;;;;;;;28.98;38.91;93392.81;5071396;28;20094;-44
2021/06/09 08:14:34;;;;;;;1.48;1.38;;;;;;;29.69;37.26;93386.69;5070194;28;20048;-44
2021/06/09 08:17:00;;;;;;;2.75;1.58;;;;;;;30.24;36.51;93391.41;5071602;28;20028;-44
2021/06/09 08:19:26;;;;;;;1.73;1.00;;;;;;;29.89;35.51;93393.56;5070314;28;20025;-44
2021/06/09 08:21:51;;;;;;;1.35;1.20;;;;;;;30.09;36.53;93393.25;5071179;28;20395;-48
2021/06/09 08:24:17;;;;;;;2.25;1.60;;;;;;;30.45;34.89;93388.28;5071307;28;20028;-45
2021/06/09 08:26:42;;;;;;;1.85;1.27;;;;;;;29.47;35.73;93394.72;5071028;28;20024;-48
2021/06/09 08:29:08;;;;;;;0.93;0.75;;;;;;;28.81;36.95;93397.38;5071372;28;20027;-45
2021/06/09 08:31:35;;;;;;;1.00;0.95;;;;;;;28.01;38.83;93404.41;5069214;28;20020;-44
2021/06/09 08:34:01;;;;;;;1.23;1.13;;;;;;;27.43;40.82;93402.66;5050858;28;20029;-45
2021/06/09 08:36:28;;;;;;;1.40;1.30;;;;;;;26.77;41.56;93410.44;5062104;28;20021;-46
2021/06/09 08:38:56;;;;;;;1.40;1.30;;;;;;;26.12;43.18;93406.72;5055935;28;20057;-44
2021/06/09 08:41:28;;;;;;;1.30;1.17;;;;;;;25.33;45.52;93400.22;5050895;28;20053;-44
2021/06/09 08:43:56;;;;;;;2.58;1.92;;;;;;;24.42;47.88;93398.63;5051214;28;20398;-45
2021/06/09 08:46:21;;;;;;;1.92;1.67;;;;;;;23.99;49.63;93390.44;5051245;28;20624;-45
2021/06/09 08:48:47;;;;;;;2.20;2.00;;;;;;;23.86;49.55;93396.91;5051130;28;20034;-45
2021/06/09 08:51:15;;;;;;;1.75;1.65;;;;;;;23.39;50.90;93402.53;5050870;28;20406;-44
2021/06/09 08:53:49;;;;;;;2.22;1.80;;;;;;;22.68;53.35;93417.41;5050853;28;20036;-43
2021/06/09 08:56:15;;;;;;;2.92;1.98;;;;;;;22.28;55.04;93413.31;5050491;28;20735;-43
2021/06/09 08:58:41;;;;;;;3.28;2.22;;;;;;;21.93;55.97;93416.47;5065579;28;20082;-46
2021/06/09 09:01:08;;;;;;;2.90;2.00;;;;;;;21.46;57.31;93418.16;5070488;28;20029;-44
2021/06/09 09:03:37;;;;;;;2.00;1.83;;;;;;;21.22;58.21;93411.97;5069743;28;20581;-44
2021/06/09 09:06:04;;;;;;;2.60;1.88;;;;;;;21.18;58.86;93403.31;5070189;28;20032;-49
2021/06/09 09:08:29;;;;;;;4.18;2.13;;;;;;;21.26;59.46;93409.38;5065016;28;20029;-46
2021/06/09 09:10:55;;;;;;;4.18;2.00;;;;;;;21.24;58.86;93412.09;5050087;28;20036;-45
2021/06/09 09:13:21;;;;;;;3.40;2.20;;;;;;;21.64;60.07;93416.31;5049447;28;20060;-43
2021/06/09 09:15:46;;;;;;;3.45;2.00;;;;;;;22.66;55.51;93420.13;5049934;28;20035;-44
2021/06/09 09:18:12;;;;;;;2.15;1.48;;;;;;;23.53;53.71;93414.47;5049752;28;20245;-44
2021/06/09 09:20:41;;;;;;;2.10;1.50;;;;;;;24.16;49.47;93417.25;5049871;28;20033;-43
2021/06/09 09:23:18;;;;;;;2.80;2.40;;;;;;;24.32;51.05;93412.31;5049647;28;20056;-41
2021/06/09 09:25:44;;;;;;;1.88;1.75;;;;;;;24.36;51.14;93406.84;5049776;28;20051;-42
2021/06/09 09:28:22;;;;;;;3.25;2.38;;;;;;;24.18;48.77;93409.63;5065062;28;20044;-42
2021/06/09 09:30:47;;;;;;;2.00;1.60;;;;;;;24.10;49.33;93409.28;5069422;28;20111;-44
2021/06/09 09:33:20;;;;;;;2.00;1.80;;;;;;;24.17;49.44;93408.16;5069540;28;20107;-42
2021/06/09 09:35:48;;;;;;;2.30;2.10;;;;;;;24.49;48.65;93405.97;5069402;28;20457;-42
2021/06/09 09:38:20;;;;;;;3.23;1.97;;;;;;;25.21;48.37;93402.59;5062177;28;20098;-43
2021/06/09 09:41:21;;;;;;;1.42;1.33;;;;;;;25.74;41.64;93400.41;5049369;28;20052;-43
2021/06/09 09:43:52;;;;;;;1.20;1.13;;;;;;;25.96;42.75;93406.88;4995104;28;20034;-44
2021/06/09 09:46:33;;;;;;;5.40;1.50;;;;;;;25.73;42.56;93395.41;5043816;28;20432;-45
2021/06/09 09:49:08;;;;;;;1.67;1.45;;;;;;;25.59;44.43;93395.59;5048775;28;20086;-43
2021/06/09 09:51:55;;;;;;;1.55;1.33;;;;;;;25.40;40.23;93393.44;5047892;28;20064;-44
2021/06/09 09:54:32;;;;;;;3.33;1.42;;;;;;;25.24;42.05;93395.63;5046948;28;20048;-43
2021/06/09 09:56:59;;;;;;;2.22;1.25;;;;;;;25.29;41.03;93397.97;5062779;28;20105;-45
2021/06/09 09:59:30;;;;;;;1.60;1.50;;;;;;;25.07;42.20;93382.97;5047139;28;20032;-42
2021/06/09 10:01:57;;;;;;;1.70;1.60;;;;;;;25.33;42.93;93388.91;5046668;28;20414;-45
2021/06/09 10:04:33;;;;;;;1.48;1.33;;;;;;;25.25;43.68;93386.50;5047734;28;20033;-44
2021/06/09 10:06:59;;;;;;;3.53;1.33;;;;;;;25.19;43.16;93383.44;5047328;28;20462;-43
2021/06/09 10:09:25;;;;;;;2.15;1.55;;;;;;;25.01;43.88;93382.75;5047232;28;20041;-45
2021/06/09 10:12:04;;;;;;;1.75;1.48;;;;;;;24.71;44.46;93384.31;5053167;28;20031;-43
2021/06/09 10:14:31;;;;;;;1.63;1.50;;;;;;;24.62;45.12;93385.34;5066576;28;20028;-43
2021/06/09 10:17:14;;;;;;;9.95;1.35;;;;;;;24.44;44.56;93376.88;5063218;28;20441;-44
2021/06/09 10:19:42;;;;;;;1.55;1.45;;;;;;;24.15;44.98;93370.69;5055457;28;20021;-44
2021/06/09 10:22:09;;;;;;;3.22;1.27;;;;;;;23.84;46.52;93374.25;5054584;28;20032;-44
2021/06/09 10:24:54;;;;;;;6.05;2.22;;;;;;;23.85;48.06;93367.97;5054334;28;20036;-44
2021/06/09 10:27:47;;;;;;;2.28;1.70;;;;;;;23.71;44.77;93370.19;5056681;28;20413;-44
2021/06/09 10:30:19;;;;;;;2.17;1.83;;;;;;;23.61;44.81;93372.53;5055375;28;20420;-43
2021/06/09 10:32:53;;;;;;;1.70;1.60;;;;;;;23.51;45.61;93374.19;5056378;28;20029;-43
2021/06/09 10:35:20;;;;;;;1.67;1.58;;;;;;;23.48;43.21;93369.81;5054429;28;20038;-44
2021/06/09 10:37:47;;;;;;;2.30;1.75;;;;;;;23.52;46.17;93370.72;5054994;28;20102;-44
2021/06/09 10:40:16;;;;;;;1.88;1.70;;;;;;;23.39;47.27;93373.63;5052637;28;20049;-43
2021/06/09 10:42:42;;;;;;;2.40;1.95;;;;;;;23.44;47.25;93370.34;5057614;28;20111;-44
2021/06/09 10:45:10;;;;;;;2.65;2.38;;;;;;;23.48;46.04;93364.16;5063976;28;20127;-44
2021/06/09 10:47:36;;;;;;;2.90;1.55;;;;;;;23.67;46.11;93364.34;5064020;28;20041;-44
2021/06/09 10:50:05;;;;;;;1.83;1.33;;;;;;;23.79;46.25;93347.97;5045229;28;20114;-43
2021/06/09 10:52:31;;;;;;;3.08;1.15;;;;;;;23.83;44.58;93356.59;5046576;28;20595;-44
2021/06/09 10:54:57;;;;;;;1.55;1.00;;;;;;;23.93;43.26;93356.31;5046812;28;20028;-44
2021/06/09 10:57:22;;;;;;;1.70;1.10;;;;;;;24.18;42.67;93336.25;5047050;28;20510;-44
2021/06/09 10:59:48;;;;;;;1.50;1.10;;;;;;;24.42;42.80;93354.19;5046578;28;20114;-43
2021/06/09 11:02:17;;;;;;;1.30;1.17;;;;;;;24.30;42.77;93358.63;5045188;28;20498;-43
2021/06/09 11:04:46;;;;;;;4.55;1.33;;;;;;;23.85;44.99;93358.78;5045398;28;20545;-45
2021/06/09 11:07:39;;;;;;;2.22;1.90;;;;;;;23.75;45.61;93350.63;5045475;28;20422;-43
2021/06/09 11:10:09;;;;;;;1.45;1.23;;;;;;;23.44;46.27;93352.72;5046576;28;20812;-44
2021/06/09 11:12:45;;;;;;;1.33;1.15;;;;;;;23.23;48.13;93348.97;5046017;28;20039;-43
2021/06/09 11:15:18;;;;;;;1.88;1.40;;;;;;;23.12;49.50;93338.59;5046171;28;20029;-44
2021/06/09 11:17:48;;;;;;;1.60;1.50;;;;;;;23.10;49.06;93349.78;5046229;28;20457;-45
2021/06/09 11:20:30;;;;;;;1.63;1.40;;;;;;;23.15;50.25;93353.53;5047416;28;20547;-45
2021/06/09 11:23:09;;;;;;;1.35;1.17;;;;;;;23.07;48.36;93330.59;5066213;28;20421;-44
2021/06/09 11:25:41;;;;;;;1.52;1.42;;;;;;;23.10;48.29;93349.78;5065991;28;20028;-44
2021/06/09 11:28:13;;;;;;;1.23;1.05;;;;;;;23.03;46.79;93347.31;5066519;28;20036;-44
2021/06/09 11:30:58;;;;;;;2.30;1.77;;;;;;;22.93;49.39;93341.94;5066598;28;20024;-43
2021/06/09 11:33:52;;;;;;;1.67;1.50;;;;;;;23.03;50.09;93344.50;5066363;28;20112;-44
2021/06/09 11:36:18;;;;;;;1.15;1.05;;;;;;;23.31;46.44;93331.69;5054923;28;20036;-47
2021/06/09 11:38:52;;;;;;;1.58;1.20;;;;;;;23.25;48.37;93332.16;5060760;28;20032;-43
2021/06/09 11:41:27;;;;;;;1.15;1.05;;;;;;;23.19;49.84;93328.34;5069136;28;20537;-44
2021/06/09 11:43:57;;;;;;;1.88;1.40;;;;;;;23.02;48.71;93334.59;5069768;28;20027;-43
2021/06/09 11:46:31;;;;;;;1.17;1.08;;;;;;;22.98;49.12;93340.03;5069654;28;20028;-46